This is the latest recevied weather packets stored in our database for station/object DK5GB. If no packets are shown the sender has not sent any weather packets the latest 10 day(s).
| Time | Temp. | Humidity | Pressure | Rain* | Wind** | Luminosity | Snow |
|---|---|---|---|---|---|---|---|
| 1778232337 | 16.11° C | 70% | 1021.5 hPa | 0 mm | - | - | - |
| 1778230518 | 16.11° C | 71% | 1021.6 hPa | 0 mm | - | - | - |
| 1778229318 | 15° C | 74% | 1021.5 hPa | 0 mm | - | - | - |
| 1778228717 | 15° C | 73% | 1021.6 hPa | 0 mm | - | - | - |
| 1778223317 | 11.11° C | 89% | 1021.2 hPa | 0 mm | - | - | - |
| 1778220317 | 7.78° C | 94% | 1021 hPa | 0 mm | - | - | - |
| 1778219717 | 7.22° C | 94% | 1021 hPa | 0 mm | - | - | - |
| 1778218517 | 6.67° C | 94% | 1020.8 hPa | 0 mm | - | - | - |
| 1778213157 | 4.44° C | 93% | 1020.5 hPa | 0 mm | - | - | - |
| 1778205316 | 5.56° C | 92% | 1020.1 hPa | 0 mm | - | - | - |
| 1778204116 | 5.56° C | 92% | 1020.1 hPa | 0 mm | - | - | - |
| 1778201737 | 5.56° C | 91% | 1020.1 hPa | 0 mm | - | - | - |
| 1778198717 | 5.56° C | 91% | 1020.3 hPa | 0 mm | - | - | - |
| 1778191516 | 7.22° C | 89% | 1020.5 hPa | 0 mm | - | - | - |
| 1778184936 | 8.89° C | 87% | 1020.2 hPa | 0 mm | - | - | - |
| 1778183736 | 9.44° C | 87% | 1020.1 hPa | 0 mm | - | - | - |
| 1778179516 | 11.11° C | 83% | 1019.8 hPa | 0 mm | - | - | - |
| 1778174116 | 12.78° C | 78% | 1019.3 hPa | 0 mm | - | - | - |
| 1778153717 | 11.11° C | 86% | 1018.7 hPa | 0 mm | - | - | - |
| 1778153117 | 11.11° C | 85% | 1018.7 hPa | 0 mm | - | - | - |
| 1778152517 | 11.67° C | 84% | 1018.7 hPa | 0 mm | - | - | - |
| 1778151317 | 11.67° C | 85% | 1018.8 hPa | 0 mm | - | - | - |
| 1778147717 | 11.11° C | 86% | 1018.5 hPa | 0 mm | - | - | - |
| 1778147117 | 10.56° C | 87% | 1018.5 hPa | 0 mm | - | - | - |
| 1778138718 | 10° C | 94% | 1017 hPa | 0.25 mm | - | - | - |
* Rain latest hour (hover to see other rain measurements)
** Current wind speed in m/s (hover to see current wind gust speed)